sensor_id;sensor_type;location;lat;lon;timestamp;temperature;humidity
11132;DHT22;5620;53.570;9.718;2022-11-12T00:00:51;10.70;99.90
11132;DHT22;5620;53.570;9.718;2022-11-12T00:03:19;10.70;99.90
11132;DHT22;5620;53.570;9.718;2022-11-12T00:05:45;10.80;89.00
11132;DHT22;5620;53.570;9.718;2022-11-12T00:08:11;10.80;34.90
11132;DHT22;5620;53.570;9.718;2022-11-12T00:10:37;10.80;1.00
11132;DHT22;5620;53.570;9.718;2022-11-12T00:13:04;10.80;1.00
11132;DHT22;5620;53.570;9.718;2022-11-12T00:15:30;10.90;1.00
11132;DHT22;5620;53.570;9.718;2022-11-12T00:17:57;11.00;1.00
11132;DHT22;5620;53.570;9.718;2022-11-12T00:20:24;11.00;1.00
11132;DHT22;5620;53.570;9.718;2022-11-12T00:22:50;11.00;1.00
11132;DHT22;5620;53.570;9.718;2022-11-12T00:25:17;11.00;1.00
11132;DHT22;5620;53.570;9.718;2022-11-12T00:27:44;11.10;1.00
11132;DHT22;5620;53.570;9.718;2022-11-12T00:30:09;11.10;1.00
11132;DHT22;5620;53.570;9.718;2022-11-12T00:32:36;11.10;99.90
11132;DHT22;5620;53.570;9.718;2022-11-12T00:35:02;11.10;99.90
11132;DHT22;5620;53.570;9.718;2022-11-12T00:37:28;11.10;99.90
11132;DHT22;5620;53.570;9.718;2022-11-12T00:39:55;11.10;99.90
11132;DHT22;5620;53.570;9.718;2022-11-12T00:42:20;11.20;99.90
11132;DHT22;5620;53.570;9.718;2022-11-12T00:44:47;11.20;99.90
11132;DHT22;5620;53.570;9.718;2022-11-12T00:47:15;11.20;73.20
11132;DHT22;5620;53.570;9.718;2022-11-12T00:49:42;11.20;1.00
11132;DHT22;5620;53.570;9.718;2022-11-12T00:52:08;11.20;35.30
11132;DHT22;5620;53.570;9.718;2022-11-12T00:54:34;11.20;1.00
11132;DHT22;5620;53.570;9.718;2022-11-12T00:56:59;11.30;1.00
11132;DHT22;5620;53.570;9.718;2022-11-12T00:59:25;11.20;1.00
11132;DHT22;5620;53.570;9.718;2022-11-12T01:01:50;11.20;1.00
11132;DHT22;5620;53.570;9.718;2022-11-12T01:04:16;11.20;1.00
11132;DHT22;5620;53.570;9.718;2022-11-12T01:06:43;11.20;99.90
11132;DHT22;5620;53.570;9.718;2022-11-12T01:09:11;11.20;99.90
11132;DHT22;5620;53.570;9.718;2022-11-12T01:11:39;11.20;99.90
11132;DHT22;5620;53.570;9.718;2022-11-12T01:14:07;11.20;99.90
11132;DHT22;5620;53.570;9.718;2022-11-12T01:16:38;11.20;94.00
11132;DHT22;5620;53.570;9.718;2022-11-12T01:19:08;11.10;55.60
11132;DHT22;5620;53.570;9.718;2022-11-12T01:21:38;11.10;11.90
11132;DHT22;5620;53.570;9.718;2022-11-12T01:24:05;11.10;1.00
11132;DHT22;5620;53.570;9.718;2022-11-12T01:26:31;11.10;1.00
11132;DHT22;5620;53.570;9.718;2022-11-12T01:28:56;11.10;1.00
11132;DHT22;5620;53.570;9.718;2022-11-12T01:31:26;11.20;1.00
11132;DHT22;5620;53.570;9.718;2022-11-12T01:33:56;11.20;1.00
11132;DHT22;5620;53.570;9.718;2022-11-12T01:36:24;11.20;1.00
11132;DHT22;5620;53.570;9.718;2022-11-12T01:38:51;11.20;1.00
11132;DHT22;5620;53.570;9.718;2022-11-12T01:41:43;11.20;1.00
11132;DHT22;5620;53.570;9.718;2022-11-12T01:50:38;11.10;99.90
11132;DHT22;5620;53.570;9.718;2022-11-12T01:52:49;11.10;99.90
11132;DHT22;5620;53.570;9.718;2022-11-12T01:55:21;11.10;99.90
11132;DHT22;5620;53.570;9.718;2022-11-12T01:58:21;11.10;99.90
11132;DHT22;5620;53.570;9.718;2022-11-12T02:00:50;11.20;99.90
11132;DHT22;5620;53.570;9.718;2022-11-12T02:03:23;11.20;99.90
11132;DHT22;5620;53.570;9.718;2022-11-12T02:06:02;11.20;91.70
11132;DHT22;5620;53.570;9.718;2022-11-12T02:08:31;11.20;34.00
11132;DHT22;5620;53.570;9.718;2022-11-12T02:10:57;11.20;1.00
11132;DHT22;5620;53.570;9.718;2022-11-12T02:13:24;11.20;1.00
11132;DHT22;5620;53.570;9.718;2022-11-12T02:15:51;11.30;1.00
11132;DHT22;5620;53.570;9.718;2022-11-12T02:18:18;11.30;1.00
11132;DHT22;5620;53.570;9.718;2022-11-12T02:20:45;11.30;1.00
11132;DHT22;5620;53.570;9.718;2022-11-12T02:23:17;11.30;1.00
11132;DHT22;5620;53.570;9.718;2022-11-12T02:25:43;11.20;1.00
11132;DHT22;5620;53.570;9.718;2022-11-12T02:28:10;11.20;1.00
11132;DHT22;5620;53.570;9.718;2022-11-12T02:30:43;11.00;1.00
11132;DHT22;5620;53.570;9.718;2022-11-12T02:33:09;10.90;1.00
11132;DHT22;5620;53.570;9.718;2022-11-12T02:35:35;10.70;1.00
11132;DHT22;5620;53.570;9.718;2022-11-12T02:38:02;10.40;1.00
11132;DHT22;5620;53.570;9.718;2022-11-12T02:40:30;10.20;1.00
11132;DHT22;5620;53.570;9.718;2022-11-12T02:42:57;9.90;1.00
11132;DHT22;5620;53.570;9.718;2022-11-12T02:45:22;9.80;1.00
11132;DHT22;5620;53.570;9.718;2022-11-12T02:47:49;9.60;1.00
11132;DHT22;5620;53.570;9.718;2022-11-12T02:50:16;9.40;1.00
11132;DHT22;5620;53.570;9.718;2022-11-12T02:52:43;9.30;8.00
11132;DHT22;5620;53.570;9.718;2022-11-12T02:55:11;9.20;68.50
11132;DHT22;5620;53.570;9.718;2022-11-12T02:57:39;9.10;99.40
11132;DHT22;5620;53.570;9.718;2022-11-12T03:00:07;9.00;99.90
11132;DHT22;5620;53.570;9.718;2022-11-12T03:02:35;8.90;99.90
11132;DHT22;5620;53.570;9.718;2022-11-12T03:05:01;8.90;99.90
11132;DHT22;5620;53.570;9.718;2022-11-12T03:07:28;8.80;99.90
11132;DHT22;5620;53.570;9.718;2022-11-12T03:09:54;8.70;99.90
11132;DHT22;5620;53.570;9.718;2022-11-12T03:12:19;8.60;1.00
11132;DHT22;5620;53.570;9.718;2022-11-12T03:14:46;8.60;1.00
11132;DHT22;5620;53.570;9.718;2022-11-12T03:17:14;8.50;1.00
11132;DHT22;5620;53.570;9.718;2022-11-12T03:19:40;8.40;1.00
11132;DHT22;5620;53.570;9.718;2022-11-12T03:22:06;8.40;1.00
11132;DHT22;5620;53.570;9.718;2022-11-12T03:24:32;8.40;1.00
11132;DHT22;5620;53.570;9.718;2022-11-12T03:26:59;8.40;1.00
11132;DHT22;5620;53.570;9.718;2022-11-12T03:29:24;8.30;1.00
11132;DHT22;5620;53.570;9.718;2022-11-12T03:31:50;8.30;12.80
11132;DHT22;5620;53.570;9.718;2022-11-12T03:34:16;8.20;64.40
11132;DHT22;5620;53.570;9.718;2022-11-12T03:36:41;8.20;99.90
11132;DHT22;5620;53.570;9.718;2022-11-12T03:39:07;8.10;99.90
11132;DHT22;5620;53.570;9.718;2022-11-12T03:41:33;8.10;99.90
11132;DHT22;5620;53.570;9.718;2022-11-12T03:44:00;8.10;99.90
11132;DHT22;5620;53.570;9.718;2022-11-12T03:46:26;8.10;99.90
11132;DHT22;5620;53.570;9.718;2022-11-12T03:48:51;8.00;99.90
11132;DHT22;5620;53.570;9.718;2022-11-12T03:51:18;8.00;99.90
11132;DHT22;5620;53.570;9.718;2022-11-12T03:53:45;7.90;99.90
11132;DHT22;5620;53.570;9.718;2022-11-12T03:56:12;7.90;1.00
11132;DHT22;5620;53.570;9.718;2022-11-12T03:58:39;7.80;1.00
11132;DHT22;5620;53.570;9.718;2022-11-12T04:01:08;7.80;1.00
11132;DHT22;5620;53.570;9.718;2022-11-12T04:03:34;7.70;1.00
11132;DHT22;5620;53.570;9.718;2022-11-12T04:06:00;7.70;1.00
11132;DHT22;5620;53.570;9.718;2022-11-12T04:08:26;7.70;1.00
11132;DHT22;5620;53.570;9.718;2022-11-12T04:10:51;7.70;1.00
11132;DHT22;5620;53.570;9.718;2022-11-12T04:13:19;7.70;1.00
11132;DHT22;5620;53.570;9.718;2022-11-12T04:15:44;7.60;1.00
11132;DHT22;5620;53.570;9.718;2022-11-12T04:18:10;7.60;19.40
11132;DHT22;5620;53.570;9.718;2022-11-12T04:20:36;7.50;56.20
11132;DHT22;5620;53.570;9.718;2022-11-12T04:23:02;7.50;99.90
11132;DHT22;5620;53.570;9.718;2022-11-12T04:25:28;7.50;99.90
11132;DHT22;5620;53.570;9.718;2022-11-12T04:27:55;7.50;99.90
11132;DHT22;5620;53.570;9.718;2022-11-12T04:30:22;7.50;99.90
11132;DHT22;5620;53.570;9.718;2022-11-12T04:32:51;7.50;99.90
11132;DHT22;5620;53.570;9.718;2022-11-12T04:35:17;7.50;99.90
11132;DHT22;5620;53.570;9.718;2022-11-12T04:37:43;7.40;99.90
11132;DHT22;5620;53.570;9.718;2022-11-12T04:40:21;7.40;99.90
11132;DHT22;5620;53.570;9.718;2022-11-12T04:42:47;7.30;99.90
11132;DHT22;5620;53.570;9.718;2022-11-12T04:45:12;7.30;1.00
11132;DHT22;5620;53.570;9.718;2022-11-12T04:47:42;7.30;1.00
11132;DHT22;5620;53.570;9.718;2022-11-12T04:50:14;7.30;1.00
11132;DHT22;5620;53.570;9.718;2022-11-12T04:52:39;7.20;1.00
11132;DHT22;5620;53.570;9.718;2022-11-12T04:55:08;7.20;1.00
11132;DHT22;5620;53.570;9.718;2022-11-12T04:57:35;7.20;1.00
11132;DHT22;5620;53.570;9.718;2022-11-12T05:00:05;7.20;1.00
11132;DHT22;5620;53.570;9.718;2022-11-12T05:02:32;7.20;1.00
11132;DHT22;5620;53.570;9.718;2022-11-12T05:04:58;7.20;1.00
11132;DHT22;5620;53.570;9.718;2022-11-12T05:07:24;7.10;1.00
11132;DHT22;5620;53.570;9.718;2022-11-12T05:09:50;7.10;1.00
11132;DHT22;5620;53.570;9.718;2022-11-12T05:12:15;7.10;61.40
11132;DHT22;5620;53.570;9.718;2022-11-12T05:14:42;7.10;91.70
11132;DHT22;5620;53.570;9.718;2022-11-12T05:17:07;7.10;99.90
11132;DHT22;5620;53.570;9.718;2022-11-12T05:19:37;7.00;99.90
11132;DHT22;5620;53.570;9.718;2022-11-12T05:22:03;7.00;99.90
11132;DHT22;5620;53.570;9.718;2022-11-12T05:24:30;7.00;99.90
11132;DHT22;5620;53.570;9.718;2022-11-12T05:26:56;7.00;99.90
11132;DHT22;5620;53.570;9.718;2022-11-12T05:29:25;6.90;99.90
11132;DHT22;5620;53.570;9.718;2022-11-12T05:31:50;6.90;99.90
11132;DHT22;5620;53.570;9.718;2022-11-12T05:34:16;6.90;99.90
11132;DHT22;5620;53.570;9.718;2022-11-12T05:36:43;6.80;99.90
11132;DHT22;5620;53.570;9.718;2022-11-12T05:39:11;6.80;99.90
11132;DHT22;5620;53.570;9.718;2022-11-12T05:41:37;6.80;99.90
11132;DHT22;5620;53.570;9.718;2022-11-12T05:44:03;6.80;99.90
11132;DHT22;5620;53.570;9.718;2022-11-12T05:46:28;6.70;1.00
11132;DHT22;5620;53.570;9.718;2022-11-12T05:48:56;6.70;1.00
11132;DHT22;5620;53.570;9.718;2022-11-12T05:51:21;6.70;1.00
11132;DHT22;5620;53.570;9.718;2022-11-12T05:53:47;6.60;1.00
11132;DHT22;5620;53.570;9.718;2022-11-12T05:56:14;6.60;1.00
11132;DHT22;5620;53.570;9.718;2022-11-12T05:58:40;6.60;1.00
11132;DHT22;5620;53.570;9.718;2022-11-12T06:01:06;6.60;1.00
11132;DHT22;5620;53.570;9.718;2022-11-12T06:03:32;6.60;1.00
11132;DHT22;5620;53.570;9.718;2022-11-12T06:05:58;6.50;1.00
11132;DHT22;5620;53.570;9.718;2022-11-12T06:08:23;6.50;1.00
11132;DHT22;5620;53.570;9.718;2022-11-12T06:10:50;6.50;1.00
11132;DHT22;5620;53.570;9.718;2022-11-12T06:13:19;6.50;1.00
11132;DHT22;5620;53.570;9.718;2022-11-12T06:15:50;6.40;1.00
11132;DHT22;5620;53.570;9.718;2022-11-12T06:18:17;6.40;1.00
11132;DHT22;5620;53.570;9.718;2022-11-12T06:20:44;6.40;1.00
11132;DHT22;5620;53.570;9.718;2022-11-12T06:23:10;6.40;14.30
11132;DHT22;5620;53.570;9.718;2022-11-12T06:25:35;6.40;29.10
11132;DHT22;5620;53.570;9.718;2022-11-12T06:28:03;6.40;70.60
11132;DHT22;5620;53.570;9.718;2022-11-12T06:30:28;6.40;82.50
11132;DHT22;5620;53.570;9.718;2022-11-12T06:32:54;6.40;90.80
11132;DHT22;5620;53.570;9.718;2022-11-12T06:35:19;6.40;99.90
11132;DHT22;5620;53.570;9.718;2022-11-12T06:37:47;6.40;99.90
11132;DHT22;5620;53.570;9.718;2022-11-12T06:40:15;6.40;99.90
11132;DHT22;5620;53.570;9.718;2022-11-12T06:42:41;6.50;99.90
11132;DHT22;5620;53.570;9.718;2022-11-12T06:45:07;6.50;99.90
11132;DHT22;5620;53.570;9.718;2022-11-12T06:47:32;6.50;99.90
11132;DHT22;5620;53.570;9.718;2022-11-12T06:49:58;6.50;99.90
11132;DHT22;5620;53.570;9.718;2022-11-12T06:52:24;6.50;99.90
11132;DHT22;5620;53.570;9.718;2022-11-12T06:54:52;6.60;99.90
11132;DHT22;5620;53.570;9.718;2022-11-12T06:57:18;6.60;99.90
11132;DHT22;5620;53.570;9.718;2022-11-12T06:59:46;6.60;99.90
11132;DHT22;5620;53.570;9.718;2022-11-12T07:02:13;6.60;99.90
11132;DHT22;5620;53.570;9.718;2022-11-12T07:04:40;6.60;99.90
11132;DHT22;5620;53.570;9.718;2022-11-12T07:07:06;6.60;99.90
11132;DHT22;5620;53.570;9.718;2022-11-12T07:09:33;6.60;99.90
11132;DHT22;5620;53.570;9.718;2022-11-12T07:12:00;6.60;99.90
11132;DHT22;5620;53.570;9.718;2022-11-12T07:14:26;6.70;99.90
11132;DHT22;5620;53.570;9.718;2022-11-12T07:16:53;6.70;99.90
11132;DHT22;5620;53.570;9.718;2022-11-12T07:19:20;6.70;99.90
11132;DHT22;5620;53.570;9.718;2022-11-12T07:21:45;6.80;99.90
11132;DHT22;5620;53.570;9.718;2022-11-12T07:24:12;6.80;99.90
11132;DHT22;5620;53.570;9.718;2022-11-12T07:26:38;6.80;99.90
11132;DHT22;5620;53.570;9.718;2022-11-12T07:29:03;6.70;99.90
11132;DHT22;5620;53.570;9.718;2022-11-12T07:31:29;6.70;99.90
11132;DHT22;5620;53.570;9.718;2022-11-12T07:33:57;6.80;99.90
11132;DHT22;5620;53.570;9.718;2022-11-12T07:36:24;6.80;99.90
11132;DHT22;5620;53.570;9.718;2022-11-12T07:38:52;6.90;99.90
11132;DHT22;5620;53.570;9.718;2022-11-12T07:41:21;6.90;99.90
11132;DHT22;5620;53.570;9.718;2022-11-12T07:43:50;6.90;99.90
11132;DHT22;5620;53.570;9.718;2022-11-12T07:46:21;7.00;99.90
11132;DHT22;5620;53.570;9.718;2022-11-12T07:48:48;7.10;69.10
11132;DHT22;5620;53.570;9.718;2022-11-12T07:51:22;7.20;1.00
11132;DHT22;5620;53.570;9.718;2022-11-12T07:53:51;7.20;1.00
11132;DHT22;5620;53.570;9.718;2022-11-12T07:56:21;7.30;1.00
11132;DHT22;5620;53.570;9.718;2022-11-12T07:58:49;7.30;1.00
11132;DHT22;5620;53.570;9.718;2022-11-12T08:04:10;7.50;1.00
11132;DHT22;5620;53.570;9.718;2022-11-12T08:06:37;7.60;1.00
11132;DHT22;5620;53.570;9.718;2022-11-12T08:09:05;7.70;99.90
11132;DHT22;5620;53.570;9.718;2022-11-12T08:11:32;7.80;99.90
11132;DHT22;5620;53.570;9.718;2022-11-12T08:14:00;7.90;99.90
11132;DHT22;5620;53.570;9.718;2022-11-12T08:16:30;8.00;99.90
11132;DHT22;5620;53.570;9.718;2022-11-12T08:18:57;8.10;99.90
11132;DHT22;5620;53.570;9.718;2022-11-12T08:21:23;8.20;97.30
11132;DHT22;5620;53.570;9.718;2022-11-12T08:23:51;8.20;1.00
11132;DHT22;5620;53.570;9.718;2022-11-12T08:26:19;8.20;1.00
11132;DHT22;5620;53.570;9.718;2022-11-12T08:28:45;8.30;1.00
11132;DHT22;5620;53.570;9.718;2022-11-12T08:31:29;8.40;1.00
11132;DHT22;5620;53.570;9.718;2022-11-12T08:33:55;8.40;1.00
11132;DHT22;5620;53.570;9.718;2022-11-12T08:36:22;8.50;1.00
11132;DHT22;5620;53.570;9.718;2022-11-12T08:38:51;8.60;1.00
11132;DHT22;5620;53.570;9.718;2022-11-12T08:41:17;8.60;1.00
11132;DHT22;5620;53.570;9.718;2022-11-12T08:43:42;8.70;99.90
11132;DHT22;5620;53.570;9.718;2022-11-12T08:46:08;8.70;99.90
11132;DHT22;5620;53.570;9.718;2022-11-12T08:48:37;8.80;99.90
11132;DHT22;5620;53.570;9.718;2022-11-12T08:51:04;8.80;99.90
11132;DHT22;5620;53.570;9.718;2022-11-12T08:53:30;8.90;99.90
11132;DHT22;5620;53.570;9.718;2022-11-12T08:55:57;8.90;95.20
11132;DHT22;5620;53.570;9.718;2022-11-12T08:58:24;9.00;68.90
11132;DHT22;5620;53.570;9.718;2022-11-12T09:00:51;9.00;1.00
11132;DHT22;5620;53.570;9.718;2022-11-12T09:03:19;9.10;1.00
11132;DHT22;5620;53.570;9.718;2022-11-12T09:05:47;9.20;1.00
11132;DHT22;5620;53.570;9.718;2022-11-12T09:08:23;9.30;1.00
11132;DHT22;5620;53.570;9.718;2022-11-12T09:10:50;9.30;99.90
11132;DHT22;5620;53.570;9.718;2022-11-12T09:13:21;9.30;99.90
11132;DHT22;5620;53.570;9.718;2022-11-12T09:15:47;9.40;99.90
11132;DHT22;5620;53.570;9.718;2022-11-12T09:18:15;9.50;99.90
11132;DHT22;5620;53.570;9.718;2022-11-12T09:20:42;9.60;90.60
11132;DHT22;5620;53.570;9.718;2022-11-12T09:23:14;9.80;1.00
11132;DHT22;5620;53.570;9.718;2022-11-12T09:25:41;9.90;1.00
11132;DHT22;5620;53.570;9.718;2022-11-12T09:28:17;10.00;1.00
11132;DHT22;5620;53.570;9.718;2022-11-12T09:30:53;10.10;99.90
11132;DHT22;5620;53.570;9.718;2022-11-12T09:33:25;10.20;99.90
11132;DHT22;5620;53.570;9.718;2022-11-12T09:35:53;10.30;99.90
11132;DHT22;5620;53.570;9.718;2022-11-12T09:38:19;10.50;30.90
11132;DHT22;5620;53.570;9.718;2022-11-12T09:44:01;10.90;1.00
11132;DHT22;5620;53.570;9.718;2022-11-12T09:49:10;11.30;99.90
11132;DHT22;5620;53.570;9.718;2022-11-12T09:51:52;11.40;99.90
11132;DHT22;5620;53.570;9.718;2022-11-12T09:54:32;11.50;99.90
11132;DHT22;5620;53.570;9.718;2022-11-12T09:56:59;11.70;67.40
11132;DHT22;5620;53.570;9.718;2022-11-12T09:59:33;11.80;1.00
11132;DHT22;5620;53.570;9.718;2022-11-12T10:02:41;12.00;1.00
11132;DHT22;5620;53.570;9.718;2022-11-12T10:11:12;12.40;1.00
11132;DHT22;5620;53.570;9.718;2022-11-12T10:16:43;12.60;99.90
11132;DHT22;5620;53.570;9.718;2022-11-12T10:25:15;13.00;99.90
11132;DHT22;5620;53.570;9.718;2022-11-12T10:27:43;13.20;99.90
11132;DHT22;5620;53.570;9.718;2022-11-12T10:30:18;13.30;99.90
11132;DHT22;5620;53.570;9.718;2022-11-12T10:32:46;13.50;99.90
11132;DHT22;5620;53.570;9.718;2022-11-12T10:35:22;14.00;93.50
11132;DHT22;5620;53.570;9.718;2022-11-12T10:38:06;14.40;47.60
11132;DHT22;5620;53.570;9.718;2022-11-12T10:40:39;14.90;1.00
11132;DHT22;5620;53.570;9.718;2022-11-12T10:46:36;16.00;1.00
11132;DHT22;5620;53.570;9.718;2022-11-12T10:49:20;17.40;1.00
11132;DHT22;5620;53.570;9.718;2022-11-12T10:51:57;18.70;1.00
11132;DHT22;5620;53.570;9.718;2022-11-12T10:54:37;19.70;1.00
11132;DHT22;5620;53.570;9.718;2022-11-12T10:57:24;20.40;99.90
11132;DHT22;5620;53.570;9.718;2022-11-12T11:00:28;21.50;99.90
11132;DHT22;5620;53.570;9.718;2022-11-12T11:02:54;22.90;99.70
11132;DHT22;5620;53.570;9.718;2022-11-12T11:05:36;23.40;42.70
11132;DHT22;5620;53.570;9.718;2022-11-12T11:08:03;24.40;1.00
11132;DHT22;5620;53.570;9.718;2022-11-12T11:10:33;24.40;1.00
11132;DHT22;5620;53.570;9.718;2022-11-12T11:16:00;22.20;1.00
11132;DHT22;5620;53.570;9.718;2022-11-12T11:18:33;21.60;1.00
11132;DHT22;5620;53.570;9.718;2022-11-12T11:26:46;20.40;1.00
11132;DHT22;5620;53.570;9.718;2022-11-12T11:41:22;21.00;1.00
11132;DHT22;5620;53.570;9.718;2022-11-12T11:44:13;21.20;1.00
11132;DHT22;5620;53.570;9.718;2022-11-12T11:57:28;21.20;1.00
11132;DHT22;5620;53.570;9.718;2022-11-12T12:03:09;19.50;1.00
11132;DHT22;5620;53.570;9.718;2022-11-12T12:06:13;18.80;1.00
11132;DHT22;5620;53.570;9.718;2022-11-12T12:23:01;16.80;1.00
11132;DHT22;5620;53.570;9.718;2022-11-12T12:25:29;16.80;1.00
11132;DHT22;5620;53.570;9.718;2022-11-12T12:30:44;16.70;1.00
11132;DHT22;5620;53.570;9.718;2022-11-12T12:36:16;16.70;1.00
11132;DHT22;5620;53.570;9.718;2022-11-12T12:42:12;16.50;1.00
11132;DHT22;5620;53.570;9.718;2022-11-12T12:44:45;16.40;1.00
11132;DHT22;5620;53.570;9.718;2022-11-12T12:47:17;16.40;1.00
11132;DHT22;5620;53.570;9.718;2022-11-12T12:49:46;16.30;1.00
11132;DHT22;5620;53.570;9.718;2022-11-12T12:52:14;16.30;1.00
11132;DHT22;5620;53.570;9.718;2022-11-12T12:54:52;16.20;1.00
11132;DHT22;5620;53.570;9.718;2022-11-12T12:57:36;16.20;1.00
11132;DHT22;5620;53.570;9.718;2022-11-12T13:00:28;16.10;1.00
11132;DHT22;5620;53.570;9.718;2022-11-12T13:02:58;16.00;1.00
11132;DHT22;5620;53.570;9.718;2022-11-12T13:07:53;15.90;1.00
11132;DHT22;5620;53.570;9.718;2022-11-12T13:15:46;15.70;1.00
11132;DHT22;5620;53.570;9.718;2022-11-12T13:21:14;15.50;1.00
11132;DHT22;5620;53.570;9.718;2022-11-12T13:23:50;15.50;1.00
11132;DHT22;5620;53.570;9.718;2022-11-12T13:32:29;15.50;1.00
11132;DHT22;5620;53.570;9.718;2022-11-12T13:38:10;15.50;1.00
11132;DHT22;5620;53.570;9.718;2022-11-12T13:43:32;15.60;1.00
11132;DHT22;5620;53.570;9.718;2022-11-12T13:46:26;15.70;1.00
11132;DHT22;5620;53.570;9.718;2022-11-12T13:49:04;15.80;1.00
11132;DHT22;5620;53.570;9.718;2022-11-12T13:54:27;16.20;1.00
11132;DHT22;5620;53.570;9.718;2022-11-12T13:56:53;16.30;1.00
11132;DHT22;5620;53.570;9.718;2022-11-12T13:59:24;16.30;1.00
11132;DHT22;5620;53.570;9.718;2022-11-12T14:01:51;16.30;1.00
11132;DHT22;5620;53.570;9.718;2022-11-12T14:04:20;16.30;1.00
11132;DHT22;5620;53.570;9.718;2022-11-12T14:20:41;16.70;1.00
11132;DHT22;5620;53.570;9.718;2022-11-12T14:23:19;16.70;1.00
11132;DHT22;5620;53.570;9.718;2022-11-12T14:25:52;16.50;1.00
11132;DHT22;5620;53.570;9.718;2022-11-12T14:31:13;16.20;1.00
11132;DHT22;5620;53.570;9.718;2022-11-12T14:33:39;16.10;1.00
11132;DHT22;5620;53.570;9.718;2022-11-12T14:36:12;16.50;1.00
11132;DHT22;5620;53.570;9.718;2022-11-12T14:38:45;17.60;1.00
11132;DHT22;5620;53.570;9.718;2022-11-12T14:41:32;17.80;1.00
11132;DHT22;5620;53.570;9.718;2022-11-12T14:44:03;17.30;1.00
11132;DHT22;5620;53.570;9.718;2022-11-12T14:52:32;15.80;1.00
11132;DHT22;5620;53.570;9.718;2022-11-12T14:55:11;15.20;1.00
11132;DHT22;5620;53.570;9.718;2022-11-12T14:57:42;14.80;1.00
11132;DHT22;5620;53.570;9.718;2022-11-12T15:03:12;14.00;1.00
11132;DHT22;5620;53.570;9.718;2022-11-12T15:08:42;13.30;1.00
11132;DHT22;5620;53.570;9.718;2022-11-12T15:13:57;12.80;6.80
11132;DHT22;5620;53.570;9.718;2022-11-12T15:16:28;12.50;13.10
11132;DHT22;5620;53.570;9.718;2022-11-12T15:19:12;12.30;21.70
11132;DHT22;5620;53.570;9.718;2022-11-12T15:21:45;12.00;32.40
11132;DHT22;5620;53.570;9.718;2022-11-12T15:24:28;11.80;46.00
11132;DHT22;5620;53.570;9.718;2022-11-12T15:26:55;11.60;61.30
11132;DHT22;5620;53.570;9.718;2022-11-12T15:31:55;11.20;87.10
11132;DHT22;5620;53.570;9.718;2022-11-12T15:36:56;10.90;99.90
11132;DHT22;5620;53.570;9.718;2022-11-12T15:39:23;10.70;99.90
11132;DHT22;5620;53.570;9.718;2022-11-12T15:42:02;10.60;99.90
11132;DHT22;5620;53.570;9.718;2022-11-12T15:44:35;10.50;99.90
11132;DHT22;5620;53.570;9.718;2022-11-12T15:47:03;10.50;99.90
11132;DHT22;5620;53.570;9.718;2022-11-12T15:49:33;10.30;99.90
11132;DHT22;5620;53.570;9.718;2022-11-12T15:52:01;10.20;99.90
11132;DHT22;5620;53.570;9.718;2022-11-12T15:54:27;10.10;99.90
11132;DHT22;5620;53.570;9.718;2022-11-12T15:56:52;10.10;1.00
11132;DHT22;5620;53.570;9.718;2022-11-12T15:59:20;10.00;1.00
11132;DHT22;5620;53.570;9.718;2022-11-12T16:01:49;10.00;1.00
11132;DHT22;5620;53.570;9.718;2022-11-12T16:04:16;9.90;1.00
11132;DHT22;5620;53.570;9.718;2022-11-12T16:06:44;9.90;1.00
11132;DHT22;5620;53.570;9.718;2022-11-12T16:09:12;9.90;1.00
11132;DHT22;5620;53.570;9.718;2022-11-12T16:11:39;9.80;55.30
11132;DHT22;5620;53.570;9.718;2022-11-12T16:14:10;9.80;97.40
11132;DHT22;5620;53.570;9.718;2022-11-12T16:16:37;9.80;99.90
11132;DHT22;5620;53.570;9.718;2022-11-12T16:19:13;9.80;99.90
11132;DHT22;5620;53.570;9.718;2022-11-12T16:21:40;9.80;99.90
11132;DHT22;5620;53.570;9.718;2022-11-12T16:24:06;9.70;99.90
11132;DHT22;5620;53.570;9.718;2022-11-12T16:26:33;9.80;99.90
11132;DHT22;5620;53.570;9.718;2022-11-12T16:29:00;9.80;99.90
11132;DHT22;5620;53.570;9.718;2022-11-12T16:31:26;9.80;1.00
11132;DHT22;5620;53.570;9.718;2022-11-12T16:33:53;9.80;1.00
11132;DHT22;5620;53.570;9.718;2022-11-12T16:36:20;9.80;1.00
11132;DHT22;5620;53.570;9.718;2022-11-12T16:38:48;9.80;1.00
11132;DHT22;5620;53.570;9.718;2022-11-12T16:41:14;9.80;1.00
11132;DHT22;5620;53.570;9.718;2022-11-12T16:43:40;9.80;1.00
11132;DHT22;5620;53.570;9.718;2022-11-12T16:46:13;9.70;1.00
11132;DHT22;5620;53.570;9.718;2022-11-12T16:48:39;9.70;1.00
11132;DHT22;5620;53.570;9.718;2022-11-12T16:51:05;9.60;22.20
11132;DHT22;5620;53.570;9.718;2022-11-12T16:53:30;9.60;60.00
11132;DHT22;5620;53.570;9.718;2022-11-12T16:55:56;9.50;91.00
11132;DHT22;5620;53.570;9.718;2022-11-12T16:58:22;9.50;99.90
11132;DHT22;5620;53.570;9.718;2022-11-12T17:00:48;9.50;99.90
11132;DHT22;5620;53.570;9.718;2022-11-12T17:03:15;9.40;99.90
11132;DHT22;5620;53.570;9.718;2022-11-12T17:05:42;9.30;99.90
11132;DHT22;5620;53.570;9.718;2022-11-12T17:08:11;9.30;99.90
11132;DHT22;5620;53.570;9.718;2022-11-12T17:10:38;9.20;99.90
11132;DHT22;5620;53.570;9.718;2022-11-12T17:13:04;9.10;99.90
11132;DHT22;5620;53.570;9.718;2022-11-12T17:15:32;9.00;99.90
11132;DHT22;5620;53.570;9.718;2022-11-12T17:17:58;9.00;99.90
11132;DHT22;5620;53.570;9.718;2022-11-12T17:20:23;9.00;99.90
11132;DHT22;5620;53.570;9.718;2022-11-12T17:22:50;8.90;1.00
11132;DHT22;5620;53.570;9.718;2022-11-12T17:25:17;8.90;1.00
11132;DHT22;5620;53.570;9.718;2022-11-12T17:27:43;8.90;1.00
11132;DHT22;5620;53.570;9.718;2022-11-12T17:30:08;8.80;1.00
11132;DHT22;5620;53.570;9.718;2022-11-12T17:32:38;8.80;1.00
11132;DHT22;5620;53.570;9.718;2022-11-12T17:35:05;8.70;1.00
11132;DHT22;5620;53.570;9.718;2022-11-12T17:37:31;8.70;1.00
11132;DHT22;5620;53.570;9.718;2022-11-12T17:40:00;8.70;2.50
11132;DHT22;5620;53.570;9.718;2022-11-12T17:42:27;8.80;61.30
11132;DHT22;5620;53.570;9.718;2022-11-12T17:44:52;8.90;99.40
11132;DHT22;5620;53.570;9.718;2022-11-12T17:47:19;8.90;99.90
11132;DHT22;5620;53.570;9.718;2022-11-12T17:49:46;8.90;99.90
11132;DHT22;5620;53.570;9.718;2022-11-12T17:52:13;8.90;99.90
11132;DHT22;5620;53.570;9.718;2022-11-12T17:54:38;9.00;99.90
11132;DHT22;5620;53.570;9.718;2022-11-12T17:57:04;9.00;1.00
11132;DHT22;5620;53.570;9.718;2022-11-12T17:59:32;9.00;1.00
11132;DHT22;5620;53.570;9.718;2022-11-12T18:01:58;9.00;1.00
11132;DHT22;5620;53.570;9.718;2022-11-12T18:04:25;9.00;1.00
11132;DHT22;5620;53.570;9.718;2022-11-12T18:06:51;9.00;61.80
11132;DHT22;5620;53.570;9.718;2022-11-12T18:09:17;9.00;99.90
11132;DHT22;5620;53.570;9.718;2022-11-12T18:11:45;9.00;99.90
11132;DHT22;5620;53.570;9.718;2022-11-12T18:14:16;9.00;99.90
11132;DHT22;5620;53.570;9.718;2022-11-12T18:16:42;9.10;99.90
11132;DHT22;5620;53.570;9.718;2022-11-12T18:19:10;9.10;99.90
11132;DHT22;5620;53.570;9.718;2022-11-12T18:21:41;9.10;1.00
11132;DHT22;5620;53.570;9.718;2022-11-12T18:24:13;9.10;1.00
11132;DHT22;5620;53.570;9.718;2022-11-12T18:26:41;9.10;1.00
11132;DHT22;5620;53.570;9.718;2022-11-12T18:29:07;9.10;1.00
11132;DHT22;5620;53.570;9.718;2022-11-12T18:31:33;9.10;1.00
11132;DHT22;5620;53.570;9.718;2022-11-12T18:34:00;9.10;52.60
11132;DHT22;5620;53.570;9.718;2022-11-12T18:36:26;9.10;99.90
11132;DHT22;5620;53.570;9.718;2022-11-12T18:38:53;9.20;99.90
11132;DHT22;5620;53.570;9.718;2022-11-12T18:41:22;9.10;99.90
11132;DHT22;5620;53.570;9.718;2022-11-12T18:43:49;9.10;99.90
11132;DHT22;5620;53.570;9.718;2022-11-12T18:46:16;9.10;99.90